createdAt,value
2022-07-26T00:00:38.964Z,20.32
2022-07-26T00:03:44.458Z,20.31
2022-07-26T00:06:50.013Z,20.30
2022-07-26T00:09:55.362Z,20.30
2022-07-26T00:13:00.691Z,20.30
2022-07-26T00:16:06.835Z,20.30
2022-07-26T00:19:12.330Z,20.30
2022-07-26T00:22:35.983Z,20.30
2022-07-26T00:25:41.470Z,20.29
2022-07-26T00:28:47.025Z,20.28
2022-07-26T00:31:52.458Z,20.28
2022-07-26T00:34:57.949Z,20.25
2022-07-26T00:38:03.297Z,20.12
2022-07-26T00:41:10.298Z,19.57
2022-07-26T00:44:15.669Z,19.14
2022-07-26T00:47:21.069Z,19.27
2022-07-26T00:50:26.504Z,19.46
2022-07-26T00:53:31.861Z,19.57
2022-07-26T00:56:37.408Z,19.63
2022-07-26T00:59:43.105Z,19.69
2022-07-26T01:02:48.656Z,19.73
2022-07-26T01:05:54.462Z,19.75
2022-07-26T01:09:00.704Z,19.77
2022-07-26T01:12:06.734Z,19.74
2022-07-26T01:15:14.969Z,19.71
2022-07-26T01:18:20.518Z,19.70
2022-07-26T01:21:29.239Z,19.70
2022-07-26T01:24:34.629Z,19.71
2022-07-26T01:27:40.559Z,19.71
2022-07-26T01:30:46.018Z,19.71
2022-07-26T01:33:51.998Z,19.70
2022-07-26T01:36:57.435Z,19.70
2022-07-26T01:40:02.846Z,19.69
2022-07-26T01:43:08.234Z,19.68
2022-07-26T01:46:14.273Z,19.67
2022-07-26T01:49:18.595Z,19.66
2022-07-26T01:52:24.082Z,19.63
2022-07-26T01:55:29.480Z,19.61
2022-07-26T01:58:34.923Z,19.61
2022-07-26T02:01:40.518Z,19.59
2022-07-26T02:05:01.895Z,19.58
2022-07-26T02:08:07.633Z,19.56
2022-07-26T02:11:15.096Z,19.55
2022-07-26T02:14:26.058Z,19.53
2022-07-26T02:17:33.709Z,19.49
2022-07-26T02:20:39.141Z,19.47
2022-07-26T02:23:44.486Z,19.47
2022-07-26T02:26:50.087Z,19.47
2022-07-26T02:29:55.450Z,19.46
2022-07-26T02:33:00.778Z,19.43
2022-07-26T02:36:06.804Z,19.40
2022-07-26T02:39:12.578Z,19.39
2022-07-26T02:42:17.957Z,19.38
2022-07-26T02:45:23.945Z,19.38
2022-07-26T02:48:29.320Z,19.37
2022-07-26T02:51:34.777Z,19.36
2022-07-26T02:54:40.130Z,19.37
2022-07-26T02:57:46.761Z,19.37
2022-07-26T03:00:52.246Z,19.37
2022-07-26T03:03:57.581Z,19.38
2022-07-26T03:07:02.983Z,19.37
2022-07-26T03:10:11.293Z,19.35
2022-07-26T03:13:16.637Z,19.34
2022-07-26T03:16:24.868Z,19.32
2022-07-26T03:19:34.324Z,19.32
2022-07-26T03:22:39.679Z,19.32
2022-07-26T03:25:45.226Z,19.33
2022-07-26T03:28:50.558Z,19.35
2022-07-26T03:31:55.905Z,19.36
2022-07-26T03:35:01.421Z,19.37
2022-07-26T03:38:06.912Z,19.39
2022-07-26T03:41:13.414Z,19.40
2022-07-26T03:44:19.178Z,19.40
2022-07-26T03:47:24.506Z,19.42
2022-07-26T03:50:30.037Z,19.43
2022-07-26T03:53:35.965Z,19.44
2022-07-26T03:56:41.366Z,19.40
2022-07-26T03:59:46.740Z,19.34
2022-07-26T04:02:52.177Z,19.35
2022-07-26T04:05:57.674Z,19.38
2022-07-26T04:09:02.285Z,19.43
2022-07-26T04:12:11.350Z,19.44
2022-07-26T04:15:19.144Z,19.50
2022-07-26T04:18:25.554Z,19.56
2022-07-26T04:21:30.886Z,19.67
2022-07-26T04:24:36.345Z,19.79
2022-07-26T04:27:41.856Z,19.89
2022-07-26T04:30:47.244Z,19.96
2022-07-26T04:33:53.025Z,20.00
2022-07-26T04:36:58.362Z,20.06
2022-07-26T04:40:03.937Z,20.18
2022-07-26T04:43:10.033Z,20.34
2022-07-26T04:59:32.748Z,21.43
2022-07-26T05:02:39.112Z,21.57
2022-07-26T05:05:45.367Z,21.75
2022-07-26T05:08:51.539Z,21.89
2022-07-26T05:11:57.711Z,21.99
2022-07-26T05:15:04.565Z,22.10
2022-07-26T05:18:13.877Z,22.23
2022-07-26T05:21:20.487Z,22.36
2022-07-26T05:24:26.608Z,22.48
2022-07-26T05:27:32.890Z,22.61
2022-07-26T05:30:39.210Z,22.78
2022-07-26T05:33:45.442Z,23.05
2022-07-26T05:36:51.700Z,23.36
2022-07-26T05:39:57.971Z,23.67
2022-07-26T05:43:04.990Z,23.92
2022-07-26T05:46:11.343Z,24.13
2022-07-26T05:49:17.730Z,24.28
2022-07-26T05:52:25.072Z,24.42
2022-07-26T05:55:31.237Z,24.55
2022-07-26T05:58:37.675Z,24.68
2022-07-26T06:01:43.899Z,24.82
2022-07-26T06:04:50.167Z,24.98
2022-07-26T06:07:56.366Z,25.16
2022-07-26T06:11:02.519Z,25.36
2022-07-26T06:14:09.011Z,25.56
2022-07-26T06:17:15.369Z,25.77
2022-07-26T06:20:21.602Z,26.07
2022-07-26T06:23:31.987Z,26.43
2022-07-26T06:26:41.368Z,26.72
2022-07-26T06:29:49.266Z,26.63
2022-07-26T06:32:55.479Z,26.51
2022-07-26T06:36:01.733Z,26.41
2022-07-26T06:39:08.171Z,26.34
2022-07-26T06:42:14.187Z,26.26
2022-07-26T06:45:20.871Z,26.20
2022-07-26T06:48:26.907Z,26.13
2022-07-26T06:51:33.145Z,26.09
2022-07-26T06:54:39.467Z,26.11
2022-07-26T06:57:50.146Z,26.16
2022-07-26T07:00:56.976Z,26.28
2022-07-26T07:04:03.203Z,26.47
2022-07-26T07:07:09.371Z,26.59
2022-07-26T07:10:15.507Z,26.73
2022-07-26T07:13:22.271Z,26.96
2022-07-26T07:16:28.400Z,27.25
2022-07-26T07:19:36.205Z,27.55
2022-07-26T07:22:42.310Z,27.85
2022-07-26T07:25:48.843Z,28.19
2022-07-26T07:28:55.068Z,28.53
2022-07-26T07:32:03.600Z,28.84
2022-07-26T07:35:12.740Z,29.15
2022-07-26T07:38:19.860Z,29.46
2022-07-26T07:41:28.812Z,29.71
2022-07-26T07:44:35.014Z,29.97
2022-07-26T07:47:41.626Z,30.18
2022-07-26T07:50:48.148Z,30.30
2022-07-26T07:53:56.304Z,30.35
2022-07-26T07:57:03.654Z,30.37
2022-07-26T08:00:12.816Z,30.40
2022-07-26T08:03:22.406Z,30.38
2022-07-26T08:06:28.533Z,30.28
2022-07-26T08:09:34.534Z,30.12
2022-07-26T08:12:40.475Z,29.99
2022-07-26T08:15:46.695Z,29.87
2022-07-26T08:19:08.737Z,29.72
2022-07-26T08:22:15.266Z,29.55
2022-07-26T08:25:21.953Z,29.34
2022-07-26T08:31:55.135Z,28.95
2022-07-26T08:35:17.793Z,28.81
2022-07-26T08:38:25.880Z,28.62
2022-07-26T08:41:32.139Z,28.50
2022-07-26T08:44:38.409Z,28.41
2022-07-26T08:48:07.315Z,28.35
2022-07-26T08:51:12.971Z,28.29
2022-07-26T08:54:20.181Z,28.22
2022-07-26T08:57:26.383Z,28.13
2022-07-26T09:00:33.768Z,27.97
2022-07-26T09:03:40.288Z,27.80
2022-07-26T09:06:58.220Z,27.65
2022-07-26T09:10:07.747Z,27.45
2022-07-26T09:13:13.660Z,27.22
2022-07-26T09:16:19.760Z,26.99
2022-07-26T09:19:25.932Z,26.74
2022-07-26T09:22:32.290Z,26.57
2022-07-26T09:25:39.868Z,26.50
2022-07-26T09:28:46.078Z,26.48
2022-07-26T09:31:52.265Z,26.47
2022-07-26T09:35:44.091Z,26.42
2022-07-26T09:38:45.428Z,26.30
2022-07-26T09:42:17.565Z,26.19
2022-07-26T09:45:20.295Z,26.07
2022-07-26T09:48:46.154Z,25.98
2022-07-26T09:51:58.086Z,25.86
2022-07-26T09:55:08.382Z,25.74
2022-07-26T09:58:17.560Z,25.65
2022-07-26T10:01:23.862Z,25.56
2022-07-26T10:04:30.532Z,25.44
2022-07-26T10:07:37.924Z,25.32
2022-07-26T10:10:51.928Z,25.21
2022-07-26T10:13:58.970Z,25.06
2022-07-26T10:17:49.507Z,24.91
2022-07-26T10:20:55.804Z,24.71
2022-07-26T10:24:03.946Z,24.58
2022-07-26T10:27:09.964Z,24.53
2022-07-26T10:30:35.075Z,24.94
2022-07-26T10:33:46.997Z,25.38
2022-07-26T10:37:00.643Z,25.68
2022-07-26T10:40:30.308Z,25.90
2022-07-26T10:43:41.551Z,26.14
2022-07-26T10:47:16.774Z,26.26
2022-07-26T10:50:35.050Z,25.92
2022-07-26T10:53:41.631Z,25.64
2022-07-26T10:56:47.851Z,25.42
2022-07-26T10:59:56.847Z,25.22
2022-07-26T11:03:03.167Z,25.16
2022-07-26T11:06:18.726Z,25.51
2022-07-26T11:09:24.859Z,25.84
2022-07-26T11:12:30.947Z,26.02
2022-07-26T11:15:38.175Z,26.12
2022-07-26T11:18:44.439Z,26.19
2022-07-26T11:21:56.635Z,26.24
2022-07-26T11:25:03.283Z,26.29
2022-07-26T11:28:09.639Z,26.28
2022-07-26T11:31:16.698Z,26.15
2022-07-26T11:34:28.272Z,25.65
2022-07-26T11:37:34.478Z,25.21
2022-07-26T11:40:48.835Z,25.00
2022-07-26T11:44:01.893Z,25.26
2022-07-26T11:47:16.034Z,25.51
2022-07-26T11:50:23.275Z,25.67
2022-07-26T11:53:29.843Z,25.73
2022-07-26T11:56:35.921Z,25.74
2022-07-26T11:59:44.989Z,25.75
2022-07-26T12:02:55.765Z,25.71
2022-07-26T12:06:10.493Z,25.71
2022-07-26T12:09:31.327Z,25.72
2022-07-26T12:12:37.510Z,25.70
2022-07-26T12:15:51.771Z,25.69
2022-07-26T12:18:58.095Z,25.70
2022-07-26T12:22:13.499Z,25.73
2022-07-26T12:25:25.636Z,25.75
2022-07-26T12:28:46.851Z,25.77
2022-07-26T12:32:11.855Z,25.85
2022-07-26T12:35:29.518Z,25.89
2022-07-26T12:38:44.964Z,25.93
2022-07-26T12:41:54.232Z,25.96
2022-07-26T12:45:01.537Z,26.00
2022-07-26T12:48:12.009Z,25.98
2022-07-26T12:51:18.241Z,25.92
2022-07-26T12:54:29.370Z,25.88
2022-07-26T12:57:37.013Z,25.90
2022-07-26T13:00:43.255Z,25.92
2022-07-26T13:03:49.550Z,25.92
2022-07-26T13:06:55.657Z,25.90
2022-07-26T13:10:31.713Z,25.89
2022-07-26T13:13:28.212Z,25.89
2022-07-26T13:16:34.425Z,25.90
2022-07-26T13:19:40.643Z,25.94
2022-07-26T13:22:46.873Z,25.94
2022-07-26T13:25:54.003Z,25.90
2022-07-26T13:29:00.713Z,25.88
2022-07-26T13:32:07.822Z,25.83
2022-07-26T13:35:14.160Z,25.77
2022-07-26T13:38:20.488Z,25.72
2022-07-26T13:41:26.662Z,25.72
2022-07-26T13:44:34.927Z,25.73
2022-07-26T13:47:41.072Z,25.71
2022-07-26T13:50:47.287Z,25.66
2022-07-26T13:53:55.395Z,25.64
2022-07-26T13:57:03.333Z,25.61
2022-07-26T14:00:11.575Z,25.58
2022-07-26T14:03:18.339Z,25.54
2022-07-26T14:06:26.519Z,25.53
2022-07-26T14:09:32.742Z,25.51
2022-07-26T14:12:40.979Z,25.47
2022-07-26T14:15:47.080Z,25.41
2022-07-26T14:18:55.191Z,25.33
2022-07-26T14:22:01.356Z,25.25
2022-07-26T14:25:08.683Z,25.11
2022-07-26T14:28:14.856Z,24.94
2022-07-26T14:31:21.489Z,24.78
2022-07-26T14:34:27.769Z,24.58
2022-07-26T14:37:43.940Z,24.43
2022-07-26T14:40:51.796Z,24.32
2022-07-26T14:43:57.944Z,24.18
2022-07-26T14:47:04.322Z,24.02
2022-07-26T14:50:17.199Z,23.87
2022-07-26T14:53:25.003Z,23.67
2022-07-26T14:56:31.204Z,23.39
2022-07-26T14:59:37.367Z,23.09
2022-07-26T15:02:45.495Z,22.89
2022-07-26T15:05:51.848Z,22.74
2022-07-26T15:08:57.999Z,22.65
2022-07-26T15:12:04.177Z,22.61
2022-07-26T15:15:12.160Z,22.57
2022-07-26T15:18:18.369Z,22.54
2022-07-26T15:21:24.594Z,22.55
2022-07-26T15:24:30.879Z,22.61
2022-07-26T15:27:37.051Z,22.69
2022-07-26T15:30:43.232Z,22.75
2022-07-26T15:33:49.476Z,22.83
2022-07-26T15:36:55.659Z,22.82
2022-07-26T15:40:01.972Z,22.80
2022-07-26T15:43:08.120Z,22.83
2022-07-26T15:46:14.330Z,22.89
2022-07-26T15:49:22.260Z,22.93
2022-07-26T15:52:28.503Z,22.98
2022-07-26T15:55:34.845Z,23.05
2022-07-26T15:58:40.998Z,23.13
2022-07-26T16:01:47.454Z,23.17
2022-07-26T16:04:53.552Z,23.21
2022-07-26T16:07:59.780Z,23.24
2022-07-26T16:11:06.170Z,23.27
2022-07-26T16:14:12.357Z,23.30
2022-07-26T16:17:18.568Z,23.32
2022-07-26T16:20:24.745Z,23.34
2022-07-26T16:23:30.901Z,23.37
2022-07-26T16:26:37.370Z,23.39
2022-07-26T16:29:43.699Z,23.40
2022-07-26T16:32:50.290Z,23.37
2022-07-26T16:35:56.860Z,23.36
2022-07-26T16:39:03.198Z,23.35
2022-07-26T16:42:09.510Z,23.35
2022-07-26T16:45:15.834Z,23.33
2022-07-26T16:48:22.019Z,23.33
2022-07-26T16:51:28.404Z,23.35
2022-07-26T16:54:34.648Z,23.35
2022-07-26T16:57:41.422Z,23.35
2022-07-26T17:00:48.035Z,23.35
2022-07-26T17:03:54.308Z,23.32
2022-07-26T17:07:23.894Z,23.31
2022-07-26T17:10:27.122Z,23.29
2022-07-26T17:13:33.383Z,23.28
2022-07-26T17:16:39.866Z,23.26
2022-07-26T17:19:46.071Z,23.23
2022-07-26T17:22:52.224Z,23.20
2022-07-26T17:25:58.908Z,23.17
2022-07-26T17:29:06.353Z,23.15
2022-07-26T17:32:12.854Z,23.13
2022-07-26T17:35:19.055Z,23.13
2022-07-26T17:38:25.289Z,23.15
2022-07-26T17:41:33.524Z,23.16
2022-07-26T17:44:40.340Z,23.16
2022-07-26T17:47:46.965Z,23.16
2022-07-26T17:50:53.083Z,23.15
2022-07-26T17:53:59.240Z,23.14
2022-07-26T17:57:06.632Z,23.13
2022-07-26T18:00:15.023Z,23.12
2022-07-26T18:03:21.490Z,23.09
2022-07-26T18:06:27.682Z,23.05
2022-07-26T18:09:35.328Z,23.00
2022-07-26T18:12:41.977Z,22.96
2022-07-26T18:15:48.447Z,22.91
2022-07-26T18:18:54.728Z,22.88
2022-07-26T18:22:05.760Z,22.85
2022-07-26T18:25:12.988Z,22.82
2022-07-26T18:28:19.289Z,22.81
2022-07-26T18:31:25.616Z,22.80
2022-07-26T18:34:31.933Z,22.79
2022-07-26T18:37:38.127Z,22.78
2022-07-26T18:40:44.291Z,22.74
2022-07-26T18:43:50.437Z,22.72
2022-07-26T18:46:56.646Z,22.70
2022-07-26T18:50:02.879Z,22.68
2022-07-26T18:53:08.989Z,22.66
2022-07-26T18:56:15.167Z,22.66
2022-07-26T18:59:21.350Z,22.65
2022-07-26T19:02:27.609Z,22.64
2022-07-26T19:05:35.218Z,22.61
2022-07-26T19:08:42.055Z,22.60
2022-07-26T19:11:48.236Z,22.57
2022-07-26T19:14:54.553Z,22.54
2022-07-26T19:18:09.600Z,22.52
2022-07-26T19:21:15.852Z,22.50
2022-07-26T19:24:24.056Z,22.46
2022-07-26T19:27:30.350Z,22.45
2022-07-26T19:30:36.902Z,22.43
2022-07-26T19:33:43.275Z,22.39
2022-07-26T19:36:51.179Z,22.36
2022-07-26T19:40:00.633Z,22.32
2022-07-26T19:43:06.972Z,22.28
2022-07-26T19:46:13.272Z,22.25
2022-07-26T19:49:19.624Z,22.22
2022-07-26T19:52:26.046Z,22.18
2022-07-26T19:55:32.271Z,22.13
2022-07-26T19:58:38.521Z,22.09
2022-07-26T20:01:45.176Z,22.05
2022-07-26T20:04:51.532Z,22.01
2022-07-26T20:07:57.781Z,21.97
2022-07-26T20:11:03.966Z,21.93
2022-07-26T20:14:10.512Z,21.90
2022-07-26T20:17:16.935Z,21.86
2022-07-26T20:20:24.843Z,21.83
2022-07-26T20:23:31.606Z,21.79
2022-07-26T20:26:38.612Z,21.78
2022-07-26T20:29:44.744Z,21.77
2022-07-26T20:32:50.866Z,21.75
2022-07-26T20:35:57.068Z,21.74
2022-07-26T20:39:03.559Z,21.73
2022-07-26T20:42:13.536Z,21.72
2022-07-26T20:45:27.684Z,21.71
2022-07-26T20:48:33.911Z,21.71
2022-07-26T20:51:40.534Z,21.70
2022-07-26T20:54:46.743Z,21.70
2022-07-26T20:57:53.064Z,21.69
2022-07-26T21:00:59.514Z,21.67
2022-07-26T21:04:05.976Z,21.65
2022-07-26T21:07:12.194Z,21.62
2022-07-26T21:10:18.388Z,21.57
2022-07-26T21:13:25.111Z,21.52
2022-07-26T21:16:31.366Z,21.47
2022-07-26T21:19:37.775Z,21.44
2022-07-26T21:22:43.609Z,21.42
2022-07-26T21:25:50.081Z,21.38
2022-07-26T21:29:06.269Z,21.31
2022-07-26T21:32:12.536Z,21.26
2022-07-26T21:35:18.852Z,21.21
2022-07-26T21:38:25.021Z,21.16
2022-07-26T21:41:31.128Z,21.11
2022-07-26T21:44:37.191Z,21.06
2022-07-26T21:47:41.728Z,21.00
2022-07-26T21:50:47.920Z,20.93
2022-07-26T21:53:54.070Z,20.90
2022-07-26T21:57:01.077Z,20.88
2022-07-26T22:00:07.852Z,20.85
2022-07-26T22:03:14.027Z,20.80
2022-07-26T22:06:20.214Z,20.76
2022-07-26T22:09:26.334Z,20.73
2022-07-26T22:12:32.517Z,20.69
2022-07-26T22:15:39.065Z,20.67
2022-07-26T22:18:45.202Z,20.64
2022-07-26T22:21:51.190Z,20.61
2022-07-26T22:24:55.724Z,20.58
2022-07-26T22:28:02.827Z,20.52
2022-07-26T22:31:09.161Z,20.51
2022-07-26T22:34:15.409Z,20.49
2022-07-26T22:37:21.605Z,20.45
2022-07-26T22:40:27.789Z,20.42
2022-07-26T22:43:34.050Z,20.37
2022-07-26T22:46:40.301Z,20.33
2022-07-26T22:49:46.533Z,20.31
2022-07-26T22:52:52.743Z,20.29
2022-07-26T22:55:58.963Z,20.26
2022-07-26T22:59:05.317Z,20.23
2022-07-26T23:02:11.525Z,20.19
2022-07-26T23:05:18.113Z,20.15
2022-07-26T23:11:52.493Z,20.03
2022-07-26T23:14:58.659Z,19.98
2022-07-26T23:18:04.809Z,19.95
2022-07-26T23:21:11.038Z,19.91
2022-07-26T23:24:17.207Z,19.88
2022-07-26T23:27:23.331Z,19.85
2022-07-26T23:30:29.560Z,19.82
2022-07-26T23:33:51.442Z,19.79
2022-07-26T23:37:00.280Z,19.73
2022-07-26T23:40:07.626Z,19.68
2022-07-26T23:43:13.836Z,19.65
2022-07-26T23:46:20.091Z,19.59
2022-07-26T23:49:26.532Z,19.54
2022-07-26T23:52:32.746Z,19.51
2022-07-26T23:55:38.894Z,19.46
2022-07-26T23:58:45.684Z,19.41
